createdAt,value
2023-01-27T00:01:35.293Z,96746.69
2023-01-27T00:04:03.578Z,96725.16
2023-01-27T00:06:36.473Z,96812.38
2023-01-27T00:09:04.823Z,96737.84
2023-01-27T00:11:50.756Z,96747.81
2023-01-27T00:14:20.282Z,96756.97
2023-01-27T00:16:48.536Z,96747.91
2023-01-27T00:19:19.778Z,96674.34
2023-01-27T00:22:05.652Z,96728.00
2023-01-27T00:24:39.777Z,96699.38
2023-01-27T00:27:10.272Z,96712.81
2023-01-27T00:29:41.998Z,96773.13
2023-01-27T00:32:28.892Z,96742.84
2023-01-27T00:34:57.120Z,96729.03
2023-01-27T00:37:25.363Z,96729.75
2023-01-27T00:39:53.707Z,96727.72
2023-01-27T00:42:21.916Z,96718.53
2023-01-27T00:45:10.208Z,96730.09
2023-01-27T00:47:38.482Z,96766.16
2023-01-27T00:50:08.634Z,96686.25
2023-01-27T00:52:36.854Z,96731.84
2023-01-27T00:55:05.570Z,96810.53
2023-01-27T00:57:33.845Z,96710.88
2023-01-27T01:00:03.613Z,96712.38
2023-01-27T01:02:31.860Z,96733.19
2023-01-27T01:05:00.130Z,96733.84
2023-01-27T01:07:33.564Z,96731.00
2023-01-27T01:10:01.836Z,96728.13
2023-01-27T01:12:30.070Z,96695.25
2023-01-27T01:14:58.275Z,96738.38
2023-01-27T01:17:27.997Z,96743.69
2023-01-27T01:19:56.282Z,96762.31
2023-01-27T01:22:24.565Z,96739.84
2023-01-27T01:24:52.765Z,96754.84
2023-01-27T01:27:20.990Z,96742.16
2023-01-27T01:29:49.224Z,96725.22
2023-01-27T01:32:17.425Z,96610.78
2023-01-27T01:34:46.979Z,96742.16
2023-01-27T01:37:17.838Z,96754.09
2023-01-27T01:39:46.768Z,96720.69
2023-01-27T01:42:15.041Z,96757.84
2023-01-27T01:44:45.664Z,96754.19
2023-01-27T01:47:18.004Z,96779.66
2023-01-27T01:49:49.026Z,96726.53
2023-01-27T01:52:21.858Z,96747.19
2023-01-27T01:54:56.089Z,96751.66
2023-01-27T01:57:30.577Z,96726.72
2023-01-27T02:00:03.314Z,96728.06
2023-01-27T02:02:42.761Z,96652.38
2023-01-27T02:05:18.163Z,96512.88
2023-01-27T02:07:54.917Z,96677.63
2023-01-27T02:10:25.581Z,96734.78
2023-01-27T02:12:53.820Z,96770.81
2023-01-27T02:15:22.524Z,96735.69
2023-01-27T02:17:51.202Z,96713.78
2023-01-27T02:20:30.796Z,96735.59
2023-01-27T02:23:06.351Z,96700.41
2023-01-27T02:25:48.755Z,96705.91
2023-01-27T02:28:16.958Z,96732.53
2023-01-27T02:30:45.314Z,96734.00
2023-01-27T02:33:14.472Z,96710.03
2023-01-27T02:35:48.703Z,96714.34
2023-01-27T02:38:19.606Z,96693.78
2023-01-27T02:40:52.056Z,96256.13
2023-01-27T02:43:20.311Z,96729.53
2023-01-27T02:45:49.069Z,96749.00
2023-01-27T02:48:22.090Z,96715.44
2023-01-27T02:50:59.565Z,96726.84
2023-01-27T02:53:32.170Z,96740.84
2023-01-27T02:56:02.466Z,96736.50
2023-01-27T02:58:30.753Z,96730.69
2023-01-27T03:01:07.142Z,96711.53
2023-01-27T03:03:36.450Z,96720.53
2023-01-27T03:06:05.240Z,96726.84
2023-01-27T03:08:33.860Z,96715.81
2023-01-27T03:11:03.775Z,96721.03
2023-01-27T03:13:32.049Z,96726.19
2023-01-27T03:16:17.888Z,96711.88
2023-01-27T03:18:47.418Z,96671.31
2023-01-27T03:21:16.424Z,96709.47
2023-01-27T03:23:49.982Z,96699.91
2023-01-27T03:26:24.273Z,96721.53
2023-01-27T03:29:10.791Z,96708.56
2023-01-27T03:31:42.258Z,96690.22
2023-01-27T03:34:11.657Z,96668.75
2023-01-27T03:37:03.933Z,96680.03
2023-01-27T03:39:50.246Z,96696.41
2023-01-27T03:42:37.827Z,96709.66
2023-01-27T03:45:28.608Z,96719.72
2023-01-27T03:47:57.157Z,96723.63
2023-01-27T03:50:31.210Z,96724.03
2023-01-27T03:53:04.004Z,96822.69
2023-01-27T03:55:32.454Z,96728.28
2023-01-27T03:58:18.002Z,96722.38
2023-01-27T04:00:46.651Z,96725.84
2023-01-27T04:03:32.666Z,96735.44
2023-01-27T04:06:22.696Z,96731.63
2023-01-27T04:08:50.898Z,96754.81
2023-01-27T04:11:37.493Z,96725.69
2023-01-27T04:14:08.791Z,96732.09
2023-01-27T04:16:37.711Z,96749.50
2023-01-27T04:19:08.024Z,96776.13
2023-01-27T04:21:36.504Z,96739.84
2023-01-27T04:24:08.575Z,96768.31
2023-01-27T04:26:36.908Z,96713.38
2023-01-27T04:29:07.488Z,96715.19
2023-01-27T04:31:35.758Z,96705.41
2023-01-27T04:34:04.034Z,96778.56
2023-01-27T04:36:32.469Z,96748.50
2023-01-27T04:39:01.981Z,96757.81
2023-01-27T04:41:35.063Z,96755.97
2023-01-27T04:44:11.284Z,96787.03
2023-01-27T04:46:45.227Z,96744.00
2023-01-27T04:49:19.343Z,96683.56
2023-01-27T04:51:48.072Z,96750.00
2023-01-27T04:54:17.282Z,96592.72
2023-01-27T04:56:58.597Z,96798.94
2023-01-27T04:59:28.348Z,96729.47
2023-01-27T05:01:56.711Z,96706.06
2023-01-27T05:04:26.284Z,96739.03
2023-01-27T05:06:54.819Z,96770.63
2023-01-27T05:09:23.212Z,96726.19
2023-01-27T05:11:51.417Z,96764.41
2023-01-27T05:14:23.440Z,96718.88
2023-01-27T05:16:53.797Z,96757.91
2023-01-27T05:19:22.925Z,96712.91
2023-01-27T05:21:51.243Z,96742.84
2023-01-27T05:24:19.495Z,96719.22
2023-01-27T05:26:47.761Z,96775.78
2023-01-27T05:29:16.008Z,96738.38
2023-01-27T05:31:44.307Z,96695.84
2023-01-27T05:34:14.061Z,96768.41
2023-01-27T05:36:42.256Z,96737.53
2023-01-27T05:39:12.976Z,96751.34
2023-01-27T05:41:41.310Z,96756.16
2023-01-27T05:44:12.769Z,96779.47
2023-01-27T05:46:42.285Z,96775.81
2023-01-27T05:49:10.461Z,96742.03
2023-01-27T05:51:41.518Z,96640.50
2023-01-27T05:54:10.208Z,96766.75
2023-01-27T05:56:39.236Z,96610.44
2023-01-27T05:59:08.506Z,96699.59
2023-01-27T06:01:37.572Z,96765.16
2023-01-27T06:04:06.548Z,96760.97
2023-01-27T06:06:35.773Z,96659.97
2023-01-27T06:09:05.754Z,96712.31
2023-01-27T06:11:34.024Z,96709.81
2023-01-27T06:14:02.199Z,96798.63
2023-01-27T06:16:30.423Z,96766.59
2023-01-27T06:18:58.760Z,96782.28
2023-01-27T06:21:27.041Z,96767.66
2023-01-27T06:23:55.909Z,96750.19
2023-01-27T06:26:25.486Z,96754.91
2023-01-27T06:28:53.705Z,96741.53
2023-01-27T06:31:23.407Z,96785.44
2023-01-27T06:33:52.739Z,96765.81
2023-01-27T06:36:23.228Z,96766.22
2023-01-27T06:38:52.205Z,96778.44
2023-01-27T06:41:21.222Z,96791.00
2023-01-27T06:43:55.499Z,96804.91
2023-01-27T06:46:23.718Z,96798.09
2023-01-27T06:48:51.897Z,96848.84
2023-01-27T06:51:20.464Z,96815.25
2023-01-27T06:53:48.618Z,96813.47
2023-01-27T06:56:17.583Z,96805.78
2023-01-27T06:58:45.850Z,96805.00
2023-01-27T07:01:15.525Z,96839.78
2023-01-27T07:03:53.744Z,96837.66
2023-01-27T07:06:22.355Z,96834.44
2023-01-27T07:08:51.056Z,96812.25
2023-01-27T07:11:19.247Z,96683.09
2023-01-27T07:13:47.472Z,96858.34
2023-01-27T07:16:17.149Z,96866.66
2023-01-27T07:18:45.430Z,96859.50
2023-01-27T07:21:13.710Z,96825.78
2023-01-27T07:23:41.945Z,96858.53
2023-01-27T07:26:24.288Z,96810.75
2023-01-27T07:28:54.119Z,96757.97
2023-01-27T07:31:23.827Z,96839.53
2023-01-27T07:33:53.227Z,96831.88
2023-01-27T07:36:21.482Z,96885.41
2023-01-27T07:38:51.681Z,96845.84
2023-01-27T07:41:22.963Z,96863.75
2023-01-27T07:43:52.444Z,96847.50
2023-01-27T07:46:21.161Z,96855.59
2023-01-27T07:48:54.790Z,96855.50
2023-01-27T07:51:23.454Z,96811.66
2023-01-27T07:53:51.971Z,96843.88
2023-01-27T07:56:20.211Z,96896.47
2023-01-27T07:58:48.399Z,96865.34
2023-01-27T08:01:16.714Z,96924.19
2023-01-27T08:03:45.036Z,96675.81
2023-01-27T08:06:14.851Z,96899.16
2023-01-27T08:08:43.277Z,96883.75
2023-01-27T08:11:14.946Z,96865.78
2023-01-27T08:13:44.299Z,96872.09
2023-01-27T08:16:15.130Z,96920.13
2023-01-27T08:18:43.736Z,96863.50
2023-01-27T08:21:14.641Z,96907.31
2023-01-27T08:23:42.816Z,96852.63
2023-01-27T08:26:11.069Z,96848.03
2023-01-27T08:28:41.093Z,96890.81
2023-01-27T08:31:34.829Z,96827.38
2023-01-27T08:34:03.165Z,96837.19
2023-01-27T08:36:32.776Z,96836.53
2023-01-27T08:39:00.949Z,96880.06
2023-01-27T08:41:29.358Z,96898.81
2023-01-27T08:43:57.610Z,96831.28
2023-01-27T08:46:25.959Z,96916.81
2023-01-27T08:48:54.204Z,96920.00
2023-01-27T08:51:22.390Z,96870.44
2023-01-27T08:53:51.964Z,96884.53
2023-01-27T08:56:20.386Z,96875.69
2023-01-27T08:58:48.813Z,96916.75
2023-01-27T09:04:09.989Z,96918.97
2023-01-27T09:06:38.607Z,96878.66
2023-01-27T09:09:12.153Z,96901.41
2023-01-27T09:11:43.216Z,96868.19
2023-01-27T09:14:11.782Z,96907.31
2023-01-27T09:16:40.973Z,96860.84
2023-01-27T09:19:09.622Z,96830.97
2023-01-27T09:21:37.854Z,96910.91
2023-01-27T09:24:07.618Z,96755.34
2023-01-27T09:26:35.805Z,96933.91
2023-01-27T09:29:04.024Z,96863.44
2023-01-27T09:31:32.640Z,96886.25
2023-01-27T09:34:01.044Z,96831.34
2023-01-27T09:36:29.717Z,96917.50
2023-01-27T09:39:02.718Z,96892.94
2023-01-27T09:41:53.059Z,96846.03
2023-01-27T09:45:07.846Z,96929.06
2023-01-27T09:47:53.351Z,96910.81
2023-01-27T09:50:38.536Z,96909.75
2023-01-27T09:53:56.559Z,96877.66
2023-01-27T09:56:41.639Z,96899.66
2023-01-27T09:59:26.504Z,96881.50
2023-01-27T10:02:12.061Z,96918.47
2023-01-27T10:05:23.560Z,96923.31
2023-01-27T10:08:15.311Z,96834.34
2023-01-27T10:11:09.667Z,96852.47
2023-01-27T10:13:55.827Z,96888.22
2023-01-27T10:16:48.945Z,96882.41
2023-01-27T10:19:43.669Z,96884.38
2023-01-27T10:22:21.268Z,96883.28
2023-01-27T10:25:08.813Z,96893.31
2023-01-27T10:27:38.752Z,96902.47
2023-01-27T10:30:15.819Z,96882.63
2023-01-27T10:32:47.098Z,96918.16
2023-01-27T10:35:20.871Z,96817.91
2023-01-27T10:38:04.115Z,96897.41
2023-01-27T10:40:41.719Z,96931.47
2023-01-27T10:43:19.163Z,96905.00
2023-01-27T10:45:59.346Z,96871.34
2023-01-27T10:48:37.540Z,96895.50
2023-01-27T10:51:12.386Z,96869.50
2023-01-27T10:53:52.076Z,96938.72
2023-01-27T10:56:28.713Z,96966.63
2023-01-27T10:59:06.373Z,96995.66
2023-01-27T11:04:39.783Z,96922.66
2023-01-27T11:07:08.775Z,96915.22
2023-01-27T11:09:41.864Z,96939.31
2023-01-27T11:12:14.682Z,96946.66
2023-01-27T11:14:47.620Z,96941.47
2023-01-27T11:17:26.553Z,96875.66
2023-01-27T11:20:04.507Z,96953.44
2023-01-27T11:22:42.210Z,96898.22
2023-01-27T11:25:25.870Z,96938.47
2023-01-27T11:28:18.779Z,96940.72
2023-01-27T11:30:57.213Z,96910.72
2023-01-27T11:33:37.815Z,96897.66
2023-01-27T11:36:07.329Z,96867.22
2023-01-27T11:38:35.766Z,96862.97
2023-01-27T11:41:04.107Z,96899.81
2023-01-27T11:43:34.583Z,96891.56
2023-01-27T11:46:09.208Z,96891.78
2023-01-27T11:48:44.845Z,96933.28
2023-01-27T11:51:20.743Z,96925.88
2023-01-27T11:53:56.341Z,96887.78
2023-01-27T11:56:26.761Z,96881.53
2023-01-27T11:59:02.788Z,96886.28
2023-01-27T12:01:47.155Z,96838.47
2023-01-27T12:04:24.125Z,96765.81
2023-01-27T12:06:58.123Z,96897.25
2023-01-27T12:09:35.471Z,96891.16
2023-01-27T12:12:24.614Z,96819.25
2023-01-27T12:14:55.608Z,96879.63
2023-01-27T12:17:31.590Z,96879.53
2023-01-27T12:20:04.779Z,96897.38
2023-01-27T12:22:35.963Z,96896.00
2023-01-27T12:25:08.321Z,96894.34
2023-01-27T12:27:43.416Z,96909.84
2023-01-27T12:30:22.758Z,96882.53
2023-01-27T12:32:52.091Z,96877.03
2023-01-27T12:35:25.584Z,96863.88
2023-01-27T12:38:00.293Z,96844.94
2023-01-27T12:40:29.777Z,96821.78
2023-01-27T12:43:12.592Z,96886.88
2023-01-27T12:45:43.296Z,96864.06
2023-01-27T12:48:21.753Z,96844.50
2023-01-27T12:51:06.859Z,96824.72
2023-01-27T12:53:35.315Z,96833.78
2023-01-27T12:56:13.113Z,96761.94
2023-01-27T12:58:44.258Z,96845.59
2023-01-27T13:01:30.107Z,96770.03
2023-01-27T13:04:01.648Z,96844.63
2023-01-27T13:07:08.572Z,96880.06
2023-01-27T13:09:40.690Z,96816.22
2023-01-27T13:12:18.251Z,96878.78
2023-01-27T13:14:46.936Z,96856.44
2023-01-27T13:17:31.506Z,96808.84
2023-01-27T13:20:04.753Z,96805.91
2023-01-27T13:22:43.633Z,96837.75
2023-01-27T13:25:20.434Z,96855.72
2023-01-27T13:27:51.339Z,96850.91
2023-01-27T13:30:29.818Z,96881.38
2023-01-27T13:33:17.869Z,96869.97
2023-01-27T13:35:58.906Z,96862.50
2023-01-27T13:38:39.897Z,96913.34
2023-01-27T13:41:16.366Z,96869.56
2023-01-27T13:43:57.110Z,96873.38
2023-01-27T13:46:31.567Z,96858.38
2023-01-27T13:49:04.687Z,96899.59
2023-01-27T13:51:36.546Z,96892.81
2023-01-27T13:54:07.739Z,96930.09
2023-01-27T13:56:49.826Z,96851.13
2023-01-27T13:59:41.589Z,96891.06
2023-01-27T14:02:35.010Z,96767.28
2023-01-27T14:05:34.323Z,96869.31
2023-01-27T14:08:19.398Z,96910.06
2023-01-27T14:11:08.884Z,96911.69
2023-01-27T14:13:57.147Z,96891.75
2023-01-27T14:16:35.056Z,96907.34
2023-01-27T14:19:19.472Z,96861.13
2023-01-27T14:21:54.971Z,96856.41
2023-01-27T14:24:39.383Z,96912.84
2023-01-27T14:27:15.770Z,96891.28
2023-01-27T14:29:51.338Z,96869.91
2023-01-27T14:32:28.925Z,96887.03
2023-01-27T14:35:29.959Z,96904.41
2023-01-27T14:38:11.262Z,96921.59
2023-01-27T14:40:54.739Z,96889.19
2023-01-27T14:43:36.937Z,96870.53
2023-01-27T14:46:18.562Z,96855.22
2023-01-27T14:48:58.722Z,96914.31
2023-01-27T14:51:36.712Z,96930.25
2023-01-27T14:54:26.177Z,96896.66
2023-01-27T14:57:16.687Z,96885.47
2023-01-27T14:59:56.889Z,96889.25
2023-01-27T15:02:43.705Z,96890.44
2023-01-27T15:05:27.458Z,96894.75
2023-01-27T15:08:04.343Z,96871.91
2023-01-27T15:10:34.469Z,96859.25
2023-01-27T15:13:32.636Z,96896.06
2023-01-27T15:16:25.059Z,96842.13
2023-01-27T15:19:17.800Z,96909.50
2023-01-27T15:22:30.854Z,96863.69
2023-01-27T15:25:22.222Z,96849.94
2023-01-27T15:27:54.252Z,96902.50
2023-01-27T15:30:26.477Z,96919.25
2023-01-27T15:32:56.734Z,96917.31
2023-01-27T15:35:36.117Z,96913.22
2023-01-27T15:38:43.797Z,96943.50
2023-01-27T15:41:17.314Z,96882.72
2023-01-27T15:44:16.596Z,96928.34
2023-01-27T15:46:47.293Z,96930.09
2023-01-27T15:49:23.853Z,96978.03
2023-01-27T15:51:55.181Z,96953.84
2023-01-27T15:54:27.380Z,97014.25
2023-01-27T15:56:56.786Z,96946.19
2023-01-27T15:59:27.909Z,96952.75
2023-01-27T16:02:11.332Z,96947.22
2023-01-27T16:04:41.511Z,96951.19
2023-01-27T16:07:30.527Z,96947.22
2023-01-27T16:10:00.292Z,96911.81
2023-01-27T16:12:38.382Z,96994.41
2023-01-27T16:15:38.925Z,96974.28
2023-01-27T16:18:28.795Z,96944.91
2023-01-27T16:21:06.798Z,96936.91
2023-01-27T16:23:45.932Z,96889.28
2023-01-27T16:26:30.471Z,96987.56
2023-01-27T16:29:17.908Z,96924.56
2023-01-27T16:31:52.982Z,96941.88
2023-01-27T16:34:27.935Z,96950.31
2023-01-27T16:37:16.582Z,96763.38
2023-01-27T16:39:48.942Z,96842.13
2023-01-27T16:42:31.738Z,96984.41
2023-01-27T16:45:03.484Z,96927.03
2023-01-27T16:47:41.657Z,97001.94
2023-01-27T16:50:34.730Z,96988.38
2023-01-27T16:53:06.967Z,96991.06
2023-01-27T16:55:35.433Z,96950.66
2023-01-27T16:58:04.017Z,96973.38
2023-01-27T17:00:37.345Z,96960.38
2023-01-27T17:03:15.869Z,96957.38
2023-01-27T17:05:55.909Z,96974.69
2023-01-27T17:08:27.376Z,96976.56
2023-01-27T17:10:58.709Z,96964.16
2023-01-27T17:13:29.879Z,96917.75
2023-01-27T17:16:08.887Z,96992.59
2023-01-27T17:18:51.856Z,97053.78
2023-01-27T17:21:31.797Z,96978.59
2023-01-27T17:24:16.400Z,97001.09
2023-01-27T17:26:48.398Z,96881.16
2023-01-27T17:29:21.140Z,96989.66
2023-01-27T17:31:50.098Z,96995.22
2023-01-27T17:34:21.068Z,96978.06
2023-01-27T17:37:13.379Z,96886.81
2023-01-27T17:39:43.378Z,96939.06
2023-01-27T17:42:16.814Z,97052.47
2023-01-27T17:44:45.432Z,96971.56
2023-01-27T17:47:16.398Z,97018.41
2023-01-27T17:49:46.285Z,96963.44
2023-01-27T17:52:22.157Z,96997.63
2023-01-27T17:54:52.421Z,96973.44
2023-01-27T17:57:24.235Z,96952.38
2023-01-27T18:00:04.083Z,97024.50
2023-01-27T18:02:50.107Z,97006.56
2023-01-27T18:05:22.736Z,97024.44
2023-01-27T18:07:51.165Z,96979.72
2023-01-27T18:10:36.503Z,96913.16
2023-01-27T18:13:20.861Z,97027.94
2023-01-27T18:15:51.452Z,96885.00
2023-01-27T18:18:25.701Z,97016.06
2023-01-27T18:21:06.754Z,96959.47
2023-01-27T18:23:38.127Z,97019.00
2023-01-27T18:26:19.148Z,97057.78
2023-01-27T18:28:51.838Z,97000.41
2023-01-27T18:31:23.806Z,97022.75
2023-01-27T18:34:00.630Z,97061.72
2023-01-27T18:36:35.305Z,97052.47
2023-01-27T18:39:04.473Z,96996.91
2023-01-27T18:41:37.602Z,97048.53
2023-01-27T18:44:08.420Z,96979.50
2023-01-27T18:46:36.606Z,97008.94
2023-01-27T18:49:06.438Z,97077.47
2023-01-27T18:51:34.600Z,96998.28
2023-01-27T18:54:02.807Z,97008.09
2023-01-27T18:56:30.982Z,97052.13
2023-01-27T18:59:00.804Z,96968.91
2023-01-27T19:01:29.017Z,96967.09
2023-01-27T19:04:00.871Z,97004.59
2023-01-27T19:06:29.055Z,97002.94
2023-01-27T19:08:57.236Z,96977.81
2023-01-27T19:11:25.974Z,97031.56
2023-01-27T19:13:54.198Z,96994.03
2023-01-27T19:16:24.520Z,97240.69
2023-01-27T19:18:52.681Z,97020.94
2023-01-27T19:21:20.862Z,97008.78
2023-01-27T19:23:49.552Z,97009.63
2023-01-27T19:26:20.022Z,97028.31
2023-01-27T19:28:50.994Z,96985.28
2023-01-27T19:31:19.241Z,96987.28
2023-01-27T19:33:48.902Z,97034.97
2023-01-27T19:36:22.494Z,97009.97
2023-01-27T19:38:56.891Z,97054.88
2023-01-27T19:41:25.081Z,97009.13
2023-01-27T19:43:53.351Z,97027.97
2023-01-27T19:46:23.401Z,97061.56
2023-01-27T19:48:53.268Z,97052.81
2023-01-27T19:51:21.431Z,97046.16
2023-01-27T19:53:49.663Z,97088.34
2023-01-27T19:56:20.831Z,97071.50
2023-01-27T19:58:51.858Z,97059.81
2023-01-27T20:01:20.579Z,96990.78
2023-01-27T20:03:48.871Z,97055.47
2023-01-27T20:06:21.679Z,97050.81
2023-01-27T20:08:53.760Z,97075.66
2023-01-27T20:11:36.371Z,97088.00
2023-01-27T20:14:07.607Z,97080.31
2023-01-27T20:16:36.003Z,97070.47
2023-01-27T20:19:08.276Z,96959.59
2023-01-27T20:21:38.214Z,97064.31
2023-01-27T20:24:07.359Z,97066.63
2023-01-27T20:26:37.414Z,97026.38
2023-01-27T20:29:05.575Z,97021.63
2023-01-27T20:31:33.809Z,97104.69
2023-01-27T20:34:01.972Z,97094.66
2023-01-27T20:36:30.110Z,97055.66
2023-01-27T20:38:59.661Z,97087.25
2023-01-27T20:41:27.887Z,97083.47
2023-01-27T20:43:57.315Z,97080.00
2023-01-27T20:46:25.913Z,97111.75
2023-01-27T20:48:54.449Z,97049.13
2023-01-27T20:51:25.422Z,97055.66
2023-01-27T20:53:53.585Z,97086.31
2023-01-27T20:56:25.155Z,97136.84
2023-01-27T20:58:54.297Z,97040.63
2023-01-27T21:01:32.506Z,97075.97
2023-01-27T21:04:00.864Z,97068.47
2023-01-27T21:06:29.479Z,97083.97
2023-01-27T21:08:57.658Z,97078.03
2023-01-27T21:11:27.431Z,97051.56
2023-01-27T21:13:55.580Z,97099.34
2023-01-27T21:16:23.797Z,97107.66
2023-01-27T21:18:52.035Z,97114.41
2023-01-27T21:21:26.932Z,97077.50
2023-01-27T21:23:55.330Z,97090.34
2023-01-27T21:26:23.969Z,97064.31
2023-01-27T21:28:53.617Z,97064.66
2023-01-27T21:31:24.250Z,97092.16
2023-01-27T21:33:52.860Z,97080.72
2023-01-27T21:36:21.002Z,97103.75
2023-01-27T21:38:50.407Z,97106.75
2023-01-27T21:41:45.916Z,97102.16
2023-01-27T21:44:37.733Z,97039.56
2023-01-27T21:47:07.630Z,97059.66
2023-01-27T21:49:57.240Z,97231.81
2023-01-27T21:52:27.511Z,97074.72
2023-01-27T21:54:55.736Z,97100.06
2023-01-27T21:57:23.926Z,97071.81
2023-01-27T21:59:53.420Z,97046.56
2023-01-27T22:02:21.884Z,97089.16
2023-01-27T22:04:50.197Z,97100.31
2023-01-27T22:07:20.365Z,97095.50
2023-01-27T22:09:48.881Z,97076.66
2023-01-27T22:12:18.644Z,97112.06
2023-01-27T22:14:46.886Z,97107.47
2023-01-27T22:17:18.432Z,97090.66
2023-01-27T22:19:47.809Z,97065.66
2023-01-27T22:22:16.124Z,97112.50
2023-01-27T22:24:44.352Z,97077.81
2023-01-27T22:27:12.504Z,97045.66
2023-01-27T22:29:40.653Z,97124.53
2023-01-27T22:32:08.885Z,97079.31
2023-01-27T22:34:38.461Z,97112.50
2023-01-27T22:37:06.706Z,97112.00
2023-01-27T22:39:35.379Z,97108.44
2023-01-27T22:42:03.551Z,97090.63
2023-01-27T22:44:31.732Z,97082.81
2023-01-27T22:46:59.940Z,97122.34
2023-01-27T22:49:28.118Z,97052.97
2023-01-27T22:51:57.646Z,97237.00
2023-01-27T22:54:26.155Z,97117.25
2023-01-27T22:56:54.356Z,97091.84
2023-01-27T22:59:22.510Z,97046.22
2023-01-27T23:02:15.651Z,97072.41
2023-01-27T23:04:43.904Z,97095.81
2023-01-27T23:07:13.784Z,97045.47
2023-01-27T23:09:41.957Z,97128.34
2023-01-27T23:12:10.171Z,97121.28
2023-01-27T23:14:38.734Z,97112.03
2023-01-27T23:17:06.920Z,97126.25
2023-01-27T23:19:35.708Z,97077.47
2023-01-27T23:22:04.057Z,97111.25
2023-01-27T23:24:34.096Z,97079.00
2023-01-27T23:27:02.357Z,97109.44
2023-01-27T23:29:30.562Z,97079.16
2023-01-27T23:31:58.915Z,97104.31
2023-01-27T23:34:27.173Z,97080.56
2023-01-27T23:36:55.363Z,97089.50
2023-01-27T23:39:23.717Z,97121.19
2023-01-27T23:41:53.228Z,97070.81
2023-01-27T23:44:21.440Z,97050.00
2023-01-27T23:46:49.665Z,97082.22
2023-01-27T23:49:17.834Z,97104.31
2023-01-27T23:51:45.974Z,97092.66
2023-01-27T23:54:15.931Z,97086.19
2023-01-27T23:56:44.602Z,97056.16
2023-01-27T23:59:14.581Z,97094.00
